KLSV/LSV METAR and TAF weather

Enter ICAO airport designator
Station Type Date Time Source
KLSV METAR 2019/06/26 18:55 UTC NOAA

KLSV 261855Z 15012G17KT 10SM CLR 34/01 A2986 RMK AO2A SLP062 WND DATA ESTMD T03390007 $


Station Type Date Time Source
KLSV Decoded METAR 2019/06/26 18:55 UTC NOAA

Nellis Air Force Base, NV, United States (KLSV) 36-14N 115-02W
Jun 26, 2019 - 02:55 PM EDT / 2019.06.26 1855 UTC
Wind: from the SSE (150 degrees) at 14 MPH (12 KT) gusting to 20 MPH (17 KT):0
Visibility: 10 mile(s):0
Sky conditions: clear
Temperature: 93.0 F (33.9 C)
Dew Point: 33.3 F (0.7 C)
Relative Humidity: 12%
Pressure (altimeter): 29.86 in. Hg (1011 hPa)
ob: KLSV 261855Z 15012G17KT 10SM CLR 34/01 A2986 RMK AO2A SLP062 WND DATA ESTMD T03390007
cycle: 19

Station Type Date Time Source
KLSV TAF 2019/06/26 15:43 UTC NOAA

TAF KLSV 261500Z 2615/2721 21012KT 9999 FEW220 QNH2980INS
BECMG 2618/2619 19015G25KT 9999 FEW220 520009 QNH2974INS
BECMG 2703/2704 17012G18KT 9999 SKC QNH2978INS
BECMG 2707/2708 18012KT 9999 SKC QNH2982INS
BECMG 2718/2719 15015G25KT 9999 SKC QNH2976INS TX39/2623Z TN24/2712Z

Example: see airport list